sensor_id;sensor_type;location;lat;lon;timestamp;P1;durP1;ratioP1;P2;durP2;ratioP2
47103;SDS011;32853;52.164;5.400;2024-02-15T00:01:41;9.73;;;3.95;;
47103;SDS011;32853;52.164;5.400;2024-02-15T00:04:07;12.50;;;4.22;;
47103;SDS011;32853;52.164;5.400;2024-02-15T00:06:33;19.00;;;4.78;;
47103;SDS011;32853;52.164;5.400;2024-02-15T00:08:58;14.98;;;4.10;;
47103;SDS011;32853;52.164;5.400;2024-02-15T00:11:26;14.23;;;4.53;;
47103;SDS011;32853;52.164;5.400;2024-02-15T00:13:51;12.48;;;4.55;;
47103;SDS011;32853;52.164;5.400;2024-02-15T00:16:17;11.07;;;3.83;;
47103;SDS011;32853;52.164;5.400;2024-02-15T00:18:48;13.27;;;5.32;;
47103;SDS011;32853;52.164;5.400;2024-02-15T00:21:14;7.93;;;4.10;;
47103;SDS011;32853;52.164;5.400;2024-02-15T00:23:41;14.00;;;4.18;;
47103;SDS011;32853;52.164;5.400;2024-02-15T00:26:16;6.30;;;3.70;;
47103;SDS011;32853;52.164;5.400;2024-02-15T00:28:41;7.90;;;3.42;;
47103;SDS011;32853;52.164;5.400;2024-02-15T00:31:07;10.57;;;4.03;;
47103;SDS011;32853;52.164;5.400;2024-02-15T00:33:33;8.90;;;3.90;;
47103;SDS011;32853;52.164;5.400;2024-02-15T00:41:01;11.30;;;4.33;;
47103;SDS011;32853;52.164;5.400;2024-02-15T00:43:30;9.95;;;4.50;;
47103;SDS011;32853;52.164;5.400;2024-02-15T00:46:17;6.88;;;4.05;;
47103;SDS011;32853;52.164;5.400;2024-02-15T00:48:45;8.63;;;4.95;;
47103;SDS011;32853;52.164;5.400;2024-02-15T00:53:51;8.40;;;4.82;;
47103;SDS011;32853;52.164;5.400;2024-02-15T00:56:21;11.70;;;5.13;;
47103;SDS011;32853;52.164;5.400;2024-02-15T01:04:00;10.75;;;4.57;;
47103;SDS011;32853;52.164;5.400;2024-02-15T01:06:25;11.43;;;4.68;;
47103;SDS011;32853;52.164;5.400;2024-02-15T01:08:54;11.50;;;4.50;;
47103;SDS011;32853;52.164;5.400;2024-02-15T01:11:28;16.25;;;4.65;;
47103;SDS011;32853;52.164;5.400;2024-02-15T01:14:03;8.57;;;3.80;;
47103;SDS011;32853;52.164;5.400;2024-02-15T01:16:32;9.68;;;4.55;;
47103;SDS011;32853;52.164;5.400;2024-02-15T01:18:58;7.22;;;4.18;;
47103;SDS011;32853;52.164;5.400;2024-02-15T01:21:26;14.63;;;4.20;;
47103;SDS011;32853;52.164;5.400;2024-02-15T01:26:34;18.83;;;4.88;;
47103;SDS011;32853;52.164;5.400;2024-02-15T01:29:04;12.10;;;3.70;;
47103;SDS011;32853;52.164;5.400;2024-02-15T01:31:32;16.00;;;4.65;;
47103;SDS011;32853;52.164;5.400;2024-02-15T01:34:10;18.40;;;5.13;;
47103;SDS011;32853;52.164;5.400;2024-02-15T01:36:35;10.65;;;5.38;;
47103;SDS011;32853;52.164;5.400;2024-02-15T01:39:06;11.18;;;5.30;;
47103;SDS011;32853;52.164;5.400;2024-02-15T01:41:48;13.35;;;5.60;;
47103;SDS011;32853;52.164;5.400;2024-02-15T01:44:25;16.70;;;6.38;;
47103;SDS011;32853;52.164;5.400;2024-02-15T01:46:51;18.15;;;7.45;;
47103;SDS011;32853;52.164;5.400;2024-02-15T01:49:21;19.10;;;6.40;;
47103;SDS011;32853;52.164;5.400;2024-02-15T01:51:48;14.48;;;7.65;;
47103;SDS011;32853;52.164;5.400;2024-02-15T01:57:50;20.23;;;8.93;;
47103;SDS011;32853;52.164;5.400;2024-02-15T02:00:18;15.43;;;7.53;;
47103;SDS011;32853;52.164;5.400;2024-02-15T02:02:44;18.73;;;7.68;;
47103;SDS011;32853;52.164;5.400;2024-02-15T02:05:11;16.27;;;9.02;;
47103;SDS011;32853;52.164;5.400;2024-02-15T02:07:39;20.02;;;8.68;;
47103;SDS011;32853;52.164;5.400;2024-02-15T02:10:11;18.58;;;9.38;;
47103;SDS011;32853;52.164;5.400;2024-02-15T02:12:47;22.30;;;9.32;;
47103;SDS011;32853;52.164;5.400;2024-02-15T02:15:23;27.08;;;7.57;;
47103;SDS011;32853;52.164;5.400;2024-02-15T02:17:53;21.63;;;7.85;;
47103;SDS011;32853;52.164;5.400;2024-02-15T02:20:35;17.05;;;8.02;;
47103;SDS011;32853;52.164;5.400;2024-02-15T02:25:57;27.85;;;10.25;;
47103;SDS011;32853;52.164;5.400;2024-02-15T02:28:31;20.02;;;8.95;;
47103;SDS011;32853;52.164;5.400;2024-02-15T02:31:03;19.13;;;8.15;;
47103;SDS011;32853;52.164;5.400;2024-02-15T02:33:31;16.43;;;8.10;;
47103;SDS011;32853;52.164;5.400;2024-02-15T02:35:58;19.77;;;8.13;;
47103;SDS011;32853;52.164;5.400;2024-02-15T02:38:24;17.77;;;8.65;;
47103;SDS011;32853;52.164;5.400;2024-02-15T02:40:55;17.92;;;7.22;;
47103;SDS011;32853;52.164;5.400;2024-02-15T02:43:23;16.10;;;6.07;;
47103;SDS011;32853;52.164;5.400;2024-02-15T02:45:49;24.77;;;7.72;;
47103;SDS011;32853;52.164;5.400;2024-02-15T02:48:15;13.90;;;7.65;;
47103;SDS011;32853;52.164;5.400;2024-02-15T02:50:40;22.52;;;9.35;;
47103;SDS011;32853;52.164;5.400;2024-02-15T02:53:06;21.33;;;7.82;;
47103;SDS011;32853;52.164;5.400;2024-02-15T02:55:33;16.50;;;6.13;;
47103;SDS011;32853;52.164;5.400;2024-02-15T02:57:59;17.08;;;6.78;;
47103;SDS011;32853;52.164;5.400;2024-02-15T03:00:24;18.02;;;6.90;;
47103;SDS011;32853;52.164;5.400;2024-02-15T03:02:50;18.48;;;6.72;;
47103;SDS011;32853;52.164;5.400;2024-02-15T03:05:15;11.90;;;6.97;;
47103;SDS011;32853;52.164;5.400;2024-02-15T03:07:41;20.27;;;6.63;;
47103;SDS011;32853;52.164;5.400;2024-02-15T03:10:07;12.52;;;7.22;;
47103;SDS011;32853;52.164;5.400;2024-02-15T03:12:38;15.48;;;5.57;;
47103;SDS011;32853;52.164;5.400;2024-02-15T03:15:05;12.30;;;6.13;;
47103;SDS011;32853;52.164;5.400;2024-02-15T03:17:39;12.45;;;5.82;;
47103;SDS011;32853;52.164;5.400;2024-02-15T03:20:06;15.13;;;5.93;;
47103;SDS011;32853;52.164;5.400;2024-02-15T03:22:52;13.13;;;5.82;;
47103;SDS011;32853;52.164;5.400;2024-02-15T03:25:19;19.10;;;6.63;;
47103;SDS011;32853;52.164;5.400;2024-02-15T03:27:48;15.05;;;5.10;;
47103;SDS011;32853;52.164;5.400;2024-02-15T03:30:18;15.05;;;5.95;;
47103;SDS011;32853;52.164;5.400;2024-02-15T03:32:47;27.90;;;6.97;;
47103;SDS011;32853;52.164;5.400;2024-02-15T03:35:14;18.23;;;5.25;;
47103;SDS011;32853;52.164;5.400;2024-02-15T03:37:40;15.15;;;5.93;;
47103;SDS011;32853;52.164;5.400;2024-02-15T03:40:08;14.52;;;5.97;;
47103;SDS011;32853;52.164;5.400;2024-02-15T03:42:34;12.10;;;5.55;;
47103;SDS011;32853;52.164;5.400;2024-02-15T03:47:36;10.88;;;4.20;;
47103;SDS011;32853;52.164;5.400;2024-02-15T03:50:05;11.32;;;5.07;;
47103;SDS011;32853;52.164;5.400;2024-02-15T03:52:38;12.85;;;4.90;;
47103;SDS011;32853;52.164;5.400;2024-02-15T03:55:07;8.73;;;3.28;;
47103;SDS011;32853;52.164;5.400;2024-02-15T03:57:45;18.20;;;5.05;;
47103;SDS011;32853;52.164;5.400;2024-02-15T04:00:14;13.20;;;4.10;;
47103;SDS011;32853;52.164;5.400;2024-02-15T04:02:40;12.63;;;3.83;;
47103;SDS011;32853;52.164;5.400;2024-02-15T04:05:15;6.45;;;3.92;;
47103;SDS011;32853;52.164;5.400;2024-02-15T04:07:47;17.75;;;4.47;;
47103;SDS011;32853;52.164;5.400;2024-02-15T04:10:15;20.50;;;4.93;;
47103;SDS011;32853;52.164;5.400;2024-02-15T04:12:43;14.80;;;4.55;;
47103;SDS011;32853;52.164;5.400;2024-02-15T04:15:09;8.75;;;4.10;;
47103;SDS011;32853;52.164;5.400;2024-02-15T04:17:38;20.50;;;5.05;;
47103;SDS011;32853;52.164;5.400;2024-02-15T04:22:52;20.40;;;5.32;;
47103;SDS011;32853;52.164;5.400;2024-02-15T04:25:19;16.52;;;4.50;;
47103;SDS011;32853;52.164;5.400;2024-02-15T04:27:48;11.88;;;3.90;;
47103;SDS011;32853;52.164;5.400;2024-02-15T04:30:14;9.32;;;3.97;;
47103;SDS011;32853;52.164;5.400;2024-02-15T04:32:40;14.35;;;4.75;;
47103;SDS011;32853;52.164;5.400;2024-02-15T04:35:06;13.38;;;4.68;;
47103;SDS011;32853;52.164;5.400;2024-02-15T04:37:32;9.50;;;4.72;;
47103;SDS011;32853;52.164;5.400;2024-02-15T04:40:00;9.82;;;3.33;;
47103;SDS011;32853;52.164;5.400;2024-02-15T04:45:24;12.48;;;3.90;;
47103;SDS011;32853;52.164;5.400;2024-02-15T04:47:53;12.77;;;3.63;;
47103;SDS011;32853;52.164;5.400;2024-02-15T04:50:22;7.38;;;4.20;;
47103;SDS011;32853;52.164;5.400;2024-02-15T04:52:48;12.65;;;4.40;;
47103;SDS011;32853;52.164;5.400;2024-02-15T04:55:14;12.63;;;4.72;;
47103;SDS011;32853;52.164;5.400;2024-02-15T04:57:42;13.38;;;4.88;;
47103;SDS011;32853;52.164;5.400;2024-02-15T05:00:12;16.02;;;4.75;;
47103;SDS011;32853;52.164;5.400;2024-02-15T05:02:43;18.25;;;5.10;;
47103;SDS011;32853;52.164;5.400;2024-02-15T05:05:09;14.18;;;5.28;;
47103;SDS011;32853;52.164;5.400;2024-02-15T05:07:37;10.57;;;4.22;;
47103;SDS011;32853;52.164;5.400;2024-02-15T05:15:26;14.10;;;4.72;;
47103;SDS011;32853;52.164;5.400;2024-02-15T05:17:51;14.50;;;5.50;;
47103;SDS011;32853;52.164;5.400;2024-02-15T05:20:26;12.23;;;4.78;;
47103;SDS011;32853;52.164;5.400;2024-02-15T05:22:52;8.60;;;4.90;;
47103;SDS011;32853;52.164;5.400;2024-02-15T05:25:21;19.52;;;5.32;;
47103;SDS011;32853;52.164;5.400;2024-02-15T05:28:02;10.60;;;4.65;;
47103;SDS011;32853;52.164;5.400;2024-02-15T05:30:35;8.40;;;4.82;;
47103;SDS011;32853;52.164;5.400;2024-02-15T05:33:05;8.95;;;4.63;;
47103;SDS011;32853;52.164;5.400;2024-02-15T05:35:36;13.52;;;4.70;;
47103;SDS011;32853;52.164;5.400;2024-02-15T05:38:06;8.07;;;4.53;;
47103;SDS011;32853;52.164;5.400;2024-02-15T05:40:35;9.23;;;4.43;;
47103;SDS011;32853;52.164;5.400;2024-02-15T05:43:07;10.40;;;5.50;;
47103;SDS011;32853;52.164;5.400;2024-02-15T05:45:33;13.57;;;5.47;;
47103;SDS011;32853;52.164;5.400;2024-02-15T05:47:59;12.23;;;5.35;;
47103;SDS011;32853;52.164;5.400;2024-02-15T05:50:25;9.77;;;4.38;;
47103;SDS011;32853;52.164;5.400;2024-02-15T05:52:53;13.00;;;4.97;;
47103;SDS011;32853;52.164;5.400;2024-02-15T05:55:23;8.82;;;4.85;;
47103;SDS011;32853;52.164;5.400;2024-02-15T05:57:52;7.75;;;4.63;;
47103;SDS011;32853;52.164;5.400;2024-02-15T06:00:19;15.52;;;5.20;;
47103;SDS011;32853;52.164;5.400;2024-02-15T06:02:46;13.25;;;5.53;;
47103;SDS011;32853;52.164;5.400;2024-02-15T06:05:11;9.23;;;5.07;;
47103;SDS011;32853;52.164;5.400;2024-02-15T06:07:37;14.00;;;4.32;;
47103;SDS011;32853;52.164;5.400;2024-02-15T06:12:33;7.57;;;5.28;;
47103;SDS011;32853;52.164;5.400;2024-02-15T06:17:41;9.60;;;4.78;;
47103;SDS011;32853;52.164;5.400;2024-02-15T06:20:11;11.95;;;5.28;;
47103;SDS011;32853;52.164;5.400;2024-02-15T06:22:39;13.90;;;4.55;;
47103;SDS011;32853;52.164;5.400;2024-02-15T06:25:06;10.52;;;4.60;;
47103;SDS011;32853;52.164;5.400;2024-02-15T06:27:32;12.07;;;5.03;;
47103;SDS011;32853;52.164;5.400;2024-02-15T06:29:59;14.43;;;5.55;;
47103;SDS011;32853;52.164;5.400;2024-02-15T06:32:58;11.30;;;5.43;;
47103;SDS011;32853;52.164;5.400;2024-02-15T06:35:46;8.82;;;4.97;;
47103;SDS011;32853;52.164;5.400;2024-02-15T06:38:37;13.23;;;4.68;;
47103;SDS011;32853;52.164;5.400;2024-02-15T06:41:30;11.23;;;5.38;;
47103;SDS011;32853;52.164;5.400;2024-02-15T06:44:05;8.70;;;5.50;;
47103;SDS011;32853;52.164;5.400;2024-02-15T06:46:31;9.13;;;5.32;;
47103;SDS011;32853;52.164;5.400;2024-02-15T06:49:04;14.00;;;5.38;;
47103;SDS011;32853;52.164;5.400;2024-02-15T06:51:32;14.35;;;7.65;;
47103;SDS011;32853;52.164;5.400;2024-02-15T06:54:13;15.18;;;6.00;;
47103;SDS011;32853;52.164;5.400;2024-02-15T06:56:39;11.55;;;7.03;;
47103;SDS011;32853;52.164;5.400;2024-02-15T06:59:08;8.18;;;6.32;;
47103;SDS011;32853;52.164;5.400;2024-02-15T07:01:35;18.50;;;6.45;;
47103;SDS011;32853;52.164;5.400;2024-02-15T07:04:22;11.80;;;5.88;;
47103;SDS011;32853;52.164;5.400;2024-02-15T07:09:42;12.75;;;6.50;;
47103;SDS011;32853;52.164;5.400;2024-02-15T07:12:12;8.75;;;5.40;;
47103;SDS011;32853;52.164;5.400;2024-02-15T07:14:38;13.77;;;6.47;;
47103;SDS011;32853;52.164;5.400;2024-02-15T07:17:08;7.60;;;5.72;;
47103;SDS011;32853;52.164;5.400;2024-02-15T07:19:37;18.13;;;5.63;;
47103;SDS011;32853;52.164;5.400;2024-02-15T07:22:14;5.70;;;4.70;;
47103;SDS011;32853;52.164;5.400;2024-02-15T07:24:53;10.07;;;5.47;;
47103;SDS011;32853;52.164;5.400;2024-02-15T07:27:20;11.60;;;5.43;;
47103;SDS011;32853;52.164;5.400;2024-02-15T07:29:47;8.05;;;5.40;;
47103;SDS011;32853;52.164;5.400;2024-02-15T07:32:17;12.65;;;6.65;;
47103;SDS011;32853;52.164;5.400;2024-02-15T07:34:52;7.97;;;5.30;;
47103;SDS011;32853;52.164;5.400;2024-02-15T07:37:19;12.13;;;5.53;;
47103;SDS011;32853;52.164;5.400;2024-02-15T07:39:45;13.88;;;4.82;;
47103;SDS011;32853;52.164;5.400;2024-02-15T07:42:11;6.85;;;5.35;;
47103;SDS011;32853;52.164;5.400;2024-02-15T07:44:46;9.93;;;5.30;;
47103;SDS011;32853;52.164;5.400;2024-02-15T07:47:11;8.73;;;3.95;;
47103;SDS011;32853;52.164;5.400;2024-02-15T07:49:36;7.20;;;3.22;;
47103;SDS011;32853;52.164;5.400;2024-02-15T07:52:02;6.25;;;3.78;;
47103;SDS011;32853;52.164;5.400;2024-02-15T07:54:31;7.63;;;3.72;;
47103;SDS011;32853;52.164;5.400;2024-02-15T07:57:00;4.57;;;2.65;;
47103;SDS011;32853;52.164;5.400;2024-02-15T07:59:26;4.95;;;2.80;;
47103;SDS011;32853;52.164;5.400;2024-02-15T08:01:51;6.68;;;3.13;;
47103;SDS011;32853;52.164;5.400;2024-02-15T08:04:16;5.80;;;2.95;;
47103;SDS011;32853;52.164;5.400;2024-02-15T08:06:43;5.15;;;2.75;;
47103;SDS011;32853;52.164;5.400;2024-02-15T08:09:09;3.95;;;1.88;;
47103;SDS011;32853;52.164;5.400;2024-02-15T08:11:40;2.90;;;2.20;;
47103;SDS011;32853;52.164;5.400;2024-02-15T08:14:06;2.92;;;1.90;;
47103;SDS011;32853;52.164;5.400;2024-02-15T08:16:34;5.72;;;2.03;;
47103;SDS011;32853;52.164;5.400;2024-02-15T08:19:00;3.88;;;1.67;;
47103;SDS011;32853;52.164;5.400;2024-02-15T08:21:30;5.43;;;1.58;;
47103;SDS011;32853;52.164;5.400;2024-02-15T08:26:47;1.15;;;0.95;;
47103;SDS011;32853;52.164;5.400;2024-02-15T08:29:18;2.85;;;1.08;;
47103;SDS011;32853;52.164;5.400;2024-02-15T08:34:20;2.17;;;0.98;;
47103;SDS011;32853;52.164;5.400;2024-02-15T08:36:53;2.13;;;1.58;;
47103;SDS011;32853;52.164;5.400;2024-02-15T08:39:19;1.73;;;1.17;;
47103;SDS011;32853;52.164;5.400;2024-02-15T08:41:46;2.67;;;1.50;;
47103;SDS011;32853;52.164;5.400;2024-02-15T08:44:26;1.80;;;1.08;;
47103;SDS011;32853;52.164;5.400;2024-02-15T08:46:51;3.00;;;1.10;;
47103;SDS011;32853;52.164;5.400;2024-02-15T08:52:00;2.03;;;0.80;;
47103;SDS011;32853;52.164;5.400;2024-02-15T08:54:26;0.90;;;0.60;;
47103;SDS011;32853;52.164;5.400;2024-02-15T08:56:54;1.70;;;0.85;;
47103;SDS011;32853;52.164;5.400;2024-02-15T08:59:20;2.38;;;1.00;;
47103;SDS011;32853;52.164;5.400;2024-02-15T09:01:45;1.83;;;0.80;;
47103;SDS011;32853;52.164;5.400;2024-02-15T09:04:11;0.88;;;0.68;;
47103;SDS011;32853;52.164;5.400;2024-02-15T09:06:36;3.00;;;1.40;;
47103;SDS011;32853;52.164;5.400;2024-02-15T09:09:02;2.85;;;1.20;;
47103;SDS011;32853;52.164;5.400;2024-02-15T09:11:29;2.67;;;1.02;;
47103;SDS011;32853;52.164;5.400;2024-02-15T09:13:57;1.90;;;0.88;;
47103;SDS011;32853;52.164;5.400;2024-02-15T09:16:24;1.88;;;0.90;;
47103;SDS011;32853;52.164;5.400;2024-02-15T09:18:49;2.40;;;0.80;;
47103;SDS011;32853;52.164;5.400;2024-02-15T09:21:15;2.05;;;1.00;;
47103;SDS011;32853;52.164;5.400;2024-02-15T09:23:40;2.22;;;1.45;;
47103;SDS011;32853;52.164;5.400;2024-02-15T09:26:09;1.63;;;0.80;;
47103;SDS011;32853;52.164;5.400;2024-02-15T09:28:40;2.03;;;1.10;;
47103;SDS011;32853;52.164;5.400;2024-02-15T09:31:06;3.78;;;1.10;;
47103;SDS011;32853;52.164;5.400;2024-02-15T09:33:32;3.20;;;1.40;;
47103;SDS011;32853;52.164;5.400;2024-02-15T09:47:57;2.95;;;1.45;;
47103;SDS011;32853;52.164;5.400;2024-02-15T09:57:00;5.28;;;1.60;;
47103;SDS011;32853;52.164;5.400;2024-02-15T10:13:18;6.00;;;1.77;;
47103;SDS011;32853;52.164;5.400;2024-02-15T10:18:49;5.40;;;2.10;;
47103;SDS011;32853;52.164;5.400;2024-02-15T10:24:08;5.03;;;2.58;;
47103;SDS011;32853;52.164;5.400;2024-02-15T10:26:35;3.10;;;1.92;;
47103;SDS011;32853;52.164;5.400;2024-02-15T10:29:06;4.43;;;2.38;;
47103;SDS011;32853;52.164;5.400;2024-02-15T10:31:39;4.40;;;2.63;;
47103;SDS011;32853;52.164;5.400;2024-02-15T10:34:07;6.15;;;2.28;;
47103;SDS011;32853;52.164;5.400;2024-02-15T10:36:33;8.10;;;2.92;;
47103;SDS011;32853;52.164;5.400;2024-02-15T10:41:53;7.50;;;3.53;;
47103;SDS011;32853;52.164;5.400;2024-02-15T10:44:30;4.18;;;2.67;;
47103;SDS011;32853;52.164;5.400;2024-02-15T10:46:55;8.43;;;2.95;;
47103;SDS011;32853;52.164;5.400;2024-02-15T10:51:59;14.02;;;3.53;;
47103;SDS011;32853;52.164;5.400;2024-02-15T10:58:00;7.47;;;2.25;;
47103;SDS011;32853;52.164;5.400;2024-02-15T11:00:37;11.02;;;3.33;;
47103;SDS011;32853;52.164;5.400;2024-02-15T11:03:08;11.88;;;2.60;;
47103;SDS011;32853;52.164;5.400;2024-02-15T11:05:43;11.15;;;2.42;;
47103;SDS011;32853;52.164;5.400;2024-02-15T11:08:20;4.55;;;2.60;;
47103;SDS011;32853;52.164;5.400;2024-02-15T11:10:48;10.60;;;2.78;;
47103;SDS011;32853;52.164;5.400;2024-02-15T11:13:19;18.92;;;3.65;;
47103;SDS011;32853;52.164;5.400;2024-02-15T11:15:49;11.93;;;3.10;;
47103;SDS011;32853;52.164;5.400;2024-02-15T11:21:13;11.23;;;4.05;;
47103;SDS011;32853;52.164;5.400;2024-02-15T11:23:40;10.60;;;3.95;;
47103;SDS011;32853;52.164;5.400;2024-02-15T11:35:19;12.90;;;4.47;;
47103;SDS011;32853;52.164;5.400;2024-02-15T11:40:28;14.10;;;4.35;;
47103;SDS011;32853;52.164;5.400;2024-02-15T11:46:17;11.38;;;4.35;;
47103;SDS011;32853;52.164;5.400;2024-02-15T11:48:46;8.50;;;4.53;;
47103;SDS011;32853;52.164;5.400;2024-02-15T11:51:34;15.25;;;5.07;;
47103;SDS011;32853;52.164;5.400;2024-02-15T11:54:09;11.90;;;3.65;;
47103;SDS011;32853;52.164;5.400;2024-02-15T11:59:09;9.48;;;4.72;;
47103;SDS011;32853;52.164;5.400;2024-02-15T12:01:43;11.68;;;4.35;;
47103;SDS011;32853;52.164;5.400;2024-02-15T12:07:17;12.57;;;4.50;;
47103;SDS011;32853;52.164;5.400;2024-02-15T12:10:02;10.73;;;3.95;;
47103;SDS011;32853;52.164;5.400;2024-02-15T12:12:53;9.68;;;4.20;;
47103;SDS011;32853;52.164;5.400;2024-02-15T12:15:38;13.52;;;4.93;;
47103;SDS011;32853;52.164;5.400;2024-02-15T12:18:22;9.90;;;4.60;;
47103;SDS011;32853;52.164;5.400;2024-02-15T12:21:19;8.63;;;4.40;;
47103;SDS011;32853;52.164;5.400;2024-02-15T12:23:48;9.15;;;4.45;;
47103;SDS011;32853;52.164;5.400;2024-02-15T12:26:20;12.15;;;4.78;;
47103;SDS011;32853;52.164;5.400;2024-02-15T12:28:52;12.55;;;5.40;;
47103;SDS011;32853;52.164;5.400;2024-02-15T12:31:26;8.98;;;4.80;;
47103;SDS011;32853;52.164;5.400;2024-02-15T12:34:10;10.85;;;4.28;;
47103;SDS011;32853;52.164;5.400;2024-02-15T12:36:41;14.43;;;4.40;;
47103;SDS011;32853;52.164;5.400;2024-02-15T12:39:09;10.85;;;4.75;;
47103;SDS011;32853;52.164;5.400;2024-02-15T12:41:50;7.07;;;4.00;;
47103;SDS011;32853;52.164;5.400;2024-02-15T12:44:21;7.15;;;4.10;;
47103;SDS011;32853;52.164;5.400;2024-02-15T12:46:58;6.80;;;4.30;;
47103;SDS011;32853;52.164;5.400;2024-02-15T12:49:41;7.00;;;4.25;;
47103;SDS011;32853;52.164;5.400;2024-02-15T12:55:14;12.65;;;4.30;;
47103;SDS011;32853;52.164;5.400;2024-02-15T13:00:24;9.77;;;4.32;;
47103;SDS011;32853;52.164;5.400;2024-02-15T13:02:54;10.18;;;3.88;;
47103;SDS011;32853;52.164;5.400;2024-02-15T13:05:27;5.63;;;3.45;;
47103;SDS011;32853;52.164;5.400;2024-02-15T13:07:53;12.43;;;3.53;;
47103;SDS011;32853;52.164;5.400;2024-02-15T13:10:32;10.00;;;3.42;;
47103;SDS011;32853;52.164;5.400;2024-02-15T13:13:02;8.10;;;3.10;;
47103;SDS011;32853;52.164;5.400;2024-02-15T13:15:28;6.00;;;2.83;;
47103;SDS011;32853;52.164;5.400;2024-02-15T13:18:00;9.55;;;2.58;;
47103;SDS011;32853;52.164;5.400;2024-02-15T13:20:30;10.15;;;2.75;;
47103;SDS011;32853;52.164;5.400;2024-02-15T13:23:00;10.35;;;2.42;;
47103;SDS011;32853;52.164;5.400;2024-02-15T13:25:30;7.47;;;3.60;;
47103;SDS011;32853;52.164;5.400;2024-02-15T13:27:55;8.07;;;2.60;;
47103;SDS011;32853;52.164;5.400;2024-02-15T13:30:25;6.50;;;2.05;;
47103;SDS011;32853;52.164;5.400;2024-02-15T13:32:58;5.15;;;1.95;;
47103;SDS011;32853;52.164;5.400;2024-02-15T13:35:26;7.68;;;2.22;;
47103;SDS011;32853;52.164;5.400;2024-02-15T13:37:58;7.90;;;1.60;;
47103;SDS011;32853;52.164;5.400;2024-02-15T13:40:26;6.55;;;1.80;;
47103;SDS011;32853;52.164;5.400;2024-02-15T13:43:06;9.35;;;2.10;;
47103;SDS011;32853;52.164;5.400;2024-02-15T13:45:45;6.85;;;1.63;;
47103;SDS011;32853;52.164;5.400;2024-02-15T13:48:28;6.35;;;1.60;;
47103;SDS011;32853;52.164;5.400;2024-02-15T13:50:58;7.80;;;1.40;;
47103;SDS011;32853;52.164;5.400;2024-02-15T13:53:27;6.15;;;1.30;;
47103;SDS011;32853;52.164;5.400;2024-02-15T13:55:53;6.25;;;1.23;;
47103;SDS011;32853;52.164;5.400;2024-02-15T13:58:21;18.45;;;1.52;;
47103;SDS011;32853;52.164;5.400;2024-02-15T14:00:49;3.20;;;1.40;;
47103;SDS011;32853;52.164;5.400;2024-02-15T14:03:21;5.10;;;1.02;;
47103;SDS011;32853;52.164;5.400;2024-02-15T14:05:57;7.93;;;1.35;;
47103;SDS011;32853;52.164;5.400;2024-02-15T14:08:23;2.08;;;0.80;;
47103;SDS011;32853;52.164;5.400;2024-02-15T14:10:50;5.03;;;1.38;;
47103;SDS011;32853;52.164;5.400;2024-02-15T14:13:16;3.05;;;1.00;;
47103;SDS011;32853;52.164;5.400;2024-02-15T14:15:41;4.38;;;1.70;;
47103;SDS011;32853;52.164;5.400;2024-02-15T14:18:12;4.10;;;1.00;;
47103;SDS011;32853;52.164;5.400;2024-02-15T14:23:36;1.70;;;0.90;;
47103;SDS011;32853;52.164;5.400;2024-02-15T14:26:03;4.47;;;1.15;;
47103;SDS011;32853;52.164;5.400;2024-02-15T14:28:32;7.50;;;1.42;;
47103;SDS011;32853;52.164;5.400;2024-02-15T14:30:57;10.52;;;1.27;;
47103;SDS011;32853;52.164;5.400;2024-02-15T14:33:48;7.03;;;1.35;;
47103;SDS011;32853;52.164;5.400;2024-02-15T14:36:27;5.68;;;1.83;;
47103;SDS011;32853;52.164;5.400;2024-02-15T14:38:59;8.95;;;2.08;;
47103;SDS011;32853;52.164;5.400;2024-02-15T14:41:27;6.57;;;1.77;;
47103;SDS011;32853;52.164;5.400;2024-02-15T14:43:53;6.90;;;2.35;;
47103;SDS011;32853;52.164;5.400;2024-02-15T14:46:24;6.25;;;2.17;;
47103;SDS011;32853;52.164;5.400;2024-02-15T14:51:29;4.80;;;1.65;;
47103;SDS011;32853;52.164;5.400;2024-02-15T14:53:57;9.30;;;1.88;;
47103;SDS011;32853;52.164;5.400;2024-02-15T14:56:23;4.63;;;1.25;;
47103;SDS011;32853;52.164;5.400;2024-02-15T14:58:49;4.78;;;1.48;;
47103;SDS011;32853;52.164;5.400;2024-02-15T15:01:14;4.55;;;1.15;;
47103;SDS011;32853;52.164;5.400;2024-02-15T15:03:40;4.70;;;1.33;;
47103;SDS011;32853;52.164;5.400;2024-02-15T15:06:06;4.55;;;1.10;;
47103;SDS011;32853;52.164;5.400;2024-02-15T15:08:50;4.25;;;1.42;;
47103;SDS011;32853;52.164;5.400;2024-02-15T15:11:34;3.75;;;1.25;;
47103;SDS011;32853;52.164;5.400;2024-02-15T15:14:18;10.85;;;2.50;;
47103;SDS011;32853;52.164;5.400;2024-02-15T15:16:44;3.08;;;1.30;;
47103;SDS011;32853;52.164;5.400;2024-02-15T15:19:10;7.93;;;1.75;;
47103;SDS011;32853;52.164;5.400;2024-02-15T15:21:35;8.38;;;1.83;;
47103;SDS011;32853;52.164;5.400;2024-02-15T15:24:01;7.88;;;1.65;;
47103;SDS011;32853;52.164;5.400;2024-02-15T15:26:27;9.10;;;1.95;;
47103;SDS011;32853;52.164;5.400;2024-02-15T15:28:56;3.78;;;1.42;;
47103;SDS011;32853;52.164;5.400;2024-02-15T15:31:22;10.18;;;1.38;;
47103;SDS011;32853;52.164;5.400;2024-02-15T15:33:47;4.30;;;1.83;;
47103;SDS011;32853;52.164;5.400;2024-02-15T15:39:12;4.18;;;1.65;;
47103;SDS011;32853;52.164;5.400;2024-02-15T15:41:43;9.77;;;1.73;;
47103;SDS011;32853;52.164;5.400;2024-02-15T15:49:10;5.57;;;1.42;;
47103;SDS011;32853;52.164;5.400;2024-02-15T15:51:41;2.63;;;1.50;;
47103;SDS011;32853;52.164;5.400;2024-02-15T15:56:56;3.10;;;1.30;;
47103;SDS011;32853;52.164;5.400;2024-02-15T15:59:23;5.95;;;1.92;;
47103;SDS011;32853;52.164;5.400;2024-02-15T16:01:50;5.63;;;2.00;;
47103;SDS011;32853;52.164;5.400;2024-02-15T16:04:16;11.82;;;2.08;;
47103;SDS011;32853;52.164;5.400;2024-02-15T16:06:42;4.97;;;1.60;;
47103;SDS011;32853;52.164;5.400;2024-02-15T16:09:20;2.97;;;1.10;;
47103;SDS011;32853;52.164;5.400;2024-02-15T16:11:46;2.83;;;1.50;;
47103;SDS011;32853;52.164;5.400;2024-02-15T16:14:14;6.18;;;1.65;;
47103;SDS011;32853;52.164;5.400;2024-02-15T16:16:41;5.97;;;1.73;;
47103;SDS011;32853;52.164;5.400;2024-02-15T16:19:08;5.57;;;1.48;;
47103;SDS011;32853;52.164;5.400;2024-02-15T16:21:34;4.75;;;1.80;;
47103;SDS011;32853;52.164;5.400;2024-02-15T16:24:04;4.40;;;1.75;;
47103;SDS011;32853;52.164;5.400;2024-02-15T16:26:41;6.75;;;1.55;;
47103;SDS011;32853;52.164;5.400;2024-02-15T16:29:11;9.07;;;1.80;;
47103;SDS011;32853;52.164;5.400;2024-02-15T16:31:47;6.88;;;1.58;;
47103;SDS011;32853;52.164;5.400;2024-02-15T16:36:53;5.90;;;1.73;;
47103;SDS011;32853;52.164;5.400;2024-02-15T16:39:30;5.13;;;1.75;;
47103;SDS011;32853;52.164;5.400;2024-02-15T16:42:38;7.82;;;1.80;;
47103;SDS011;32853;52.164;5.400;2024-02-15T16:45:28;7.68;;;2.20;;
47103;SDS011;32853;52.164;5.400;2024-02-15T16:51:02;6.82;;;3.40;;
47103;SDS011;32853;52.164;5.400;2024-02-15T16:57:32;10.98;;;3.03;;
47103;SDS011;32853;52.164;5.400;2024-02-15T16:59:58;10.75;;;2.80;;
47103;SDS011;32853;52.164;5.400;2024-02-15T17:02:40;6.25;;;2.17;;
47103;SDS011;32853;52.164;5.400;2024-02-15T17:05:06;5.63;;;3.05;;
47103;SDS011;32853;52.164;5.400;2024-02-15T17:07:33;10.90;;;2.58;;
47103;SDS011;32853;52.164;5.400;2024-02-15T17:10:01;10.77;;;2.45;;
47103;SDS011;32853;52.164;5.400;2024-02-15T17:12:26;5.03;;;2.42;;
47103;SDS011;32853;52.164;5.400;2024-02-15T17:14:53;7.03;;;2.65;;
47103;SDS011;32853;52.164;5.400;2024-02-15T17:17:19;11.52;;;2.80;;
47103;SDS011;32853;52.164;5.400;2024-02-15T17:20:00;6.05;;;2.60;;
47103;SDS011;32853;52.164;5.400;2024-02-15T17:22:27;3.47;;;2.05;;
47103;SDS011;32853;52.164;5.400;2024-02-15T17:24:59;6.35;;;2.90;;
47103;SDS011;32853;52.164;5.400;2024-02-15T17:27:30;11.13;;;2.97;;
47103;SDS011;32853;52.164;5.400;2024-02-15T17:29:55;5.50;;;2.60;;
47103;SDS011;32853;52.164;5.400;2024-02-15T17:32:22;6.28;;;2.42;;